Hovedside
METAR-TAF:

METAR-TAF

Lufthavner :

Alice Springs, Australia

breddegrad: 23-48S, lengdegrad: 133-53E, høyde over havet: 545 m

Gjeldene værobservasjon

Denne rapporten ble laget for 34 minutter siden, klokken 06:30 UTC
Vind 8 kt fra Øst-sørøst
Temperatur 31°C
Luftfuktighet 14%
Trykk 1014 hPa
Sikt 10 km eller mer
Brutte skyer i en høyde av 12500 ft

METAR: YBAS 250630Z AUTO 11008KT 9999 // BKN125 31/00 Q1014 RF00.0/000.0

Tid: 16:34 (07:04 UTC)

Varsel

Denne rapporten ble laget for 1 time og 55 minutter siden, klokken 05:09 UTC
Varsel gyldig fra 25. klokken 06 UTC til 26. klokken 06 UTC
Vind 8 kt fra Øst-sørøst
Sikt 10 km eller mer
ingen skyer under 1500 m og ingen bygeskyer

TAF: YBAS 250509Z 2506/2606 12008KT CAVOK

Værobservasjoner og værvarsel for over 4000 flyplasser (METAR- og TAF-rapporter).

Tilgjengelige stasjoner er representert av de røde og gule prikkene på kartet.

Hold musepekeren over prikken for å se navnet på stasjonen.

Klikk så for å se værobservasjoner og -varsler.

For å forandre kartet kan du klikke på den grønne knappen med svart kryss for å zoome inn, på den grønne knappen med strek for å zoome ut, eller på de grønne pilene for å se tilstøtende kart.


METAR-TAF: